Time;durP1;ratioP1;P1;durP2;ratioP2;P2;SDS_P1;SDS_P2;PMS_P1;PMS_P2;Temp;Humidity;BMP_temperature;BMP_pressure;BME280_temperature;BME280_humidity;BME280_pressure;Samples;Min_cycle;Max_cycle;Signal;HPM_P1;HPM_P2
2020/12/12 00:01:29;;;;;;;11.82;6.13;;;;;;;8.66;79.09;97945.34;5070362;28;20029;-82
2020/12/12 00:03:55;;;;;;;8.68;4.85;;;;;;;8.60;79.92;97935.84;5069471;28;20052;-82
2020/12/12 00:06:22;;;;;;;11.82;5.05;;;;;;;8.57;80.63;97926.56;5070309;28;20026;-80
2020/12/12 00:08:47;;;;;;;7.45;5.07;;;;;;;8.49;81.24;97919.22;5070745;28;20134;-79
2020/12/12 00:11:13;;;;;;;12.73;6.63;;;;;;;8.50;81.92;97928.81;5069909;28;20488;-83
2020/12/12 00:13:38;;;;;;;7.85;5.03;;;;;;;8.50;82.35;97928.81;5069435;28;20040;-81
2020/12/12 00:16:06;;;;;;;6.18;3.83;;;;;;;8.46;82.43;97919.78;5069646;28;20029;-80
2020/12/12 00:18:32;;;;;;;8.80;5.75;;;;;;;8.47;83.00;97929.38;5082548;28;20040;-81
2020/12/12 00:20:57;;;;;;;10.10;5.05;;;;;;;8.47;83.30;97926.69;5088068;28;20400;-83
2020/12/12 00:23:22;;;;;;;10.60;5.60;;;;;;;8.44;83.60;97925.38;5082332;28;20570;-82
2020/12/12 00:25:48;;;;;;;8.40;4.85;;;;;;;8.47;83.42;97927.50;5069596;28;20059;-83
2020/12/12 00:28:14;;;;;;;7.38;4.15;;;;;;;8.48;83.82;97920.28;5069121;28;20478;-83
2020/12/12 00:30:40;;;;;;;7.05;4.20;;;;;;;8.51;83.97;97918.91;5085752;28;20028;-82
2020/12/12 00:33:05;;;;;;;8.07;4.25;;;;;;;8.51;83.73;97919.72;5093844;28;20455;-82
2020/12/12 00:35:30;;;;;;;7.57;4.40;;;;;;;8.45;83.90;97897.66;5091855;28;20153;-79
2020/12/12 00:37:56;;;;;;;6.65;4.45;;;;;;;8.57;84.03;97913.25;5079362;28;20413;-79
2020/12/12 00:40:21;;;;;;;6.18;3.80;;;;;;;8.56;83.88;97908.22;5077674;28;20021;-79
2020/12/12 00:42:46;;;;;;;9.52;4.43;;;;;;;8.57;84.39;97907.09;5090115;28;20060;-79
2020/12/12 00:45:12;;;;;;;9.10;4.85;;;;;;;8.58;84.51;97906.03;5073106;28;20043;-79
2020/12/12 00:47:37;;;;;;;11.00;5.75;;;;;;;8.55;84.48;97894.06;5073184;28;20074;-80
2020/12/12 00:50:03;;;;;;;8.13;4.95;;;;;;;8.58;84.49;97898.84;5073280;28;20040;-79
2020/12/12 00:52:28;;;;;;;10.05;6.05;;;;;;;8.59;84.17;97891.63;5081205;28;20035;-81
2020/12/12 00:54:54;;;;;;;14.52;6.32;;;;;;;8.55;84.63;97890.63;5090206;28;20039;-81
2020/12/12 00:57:19;;;;;;;12.57;6.72;;;;;;;8.63;84.57;97895.31;5092879;28;20021;-81
2020/12/12 00:59:45;;;;;;;11.57;5.85;;;;;;;8.55;85.02;97882.63;5110149;28;20047;-81
2020/12/12 01:02:10;;;;;;;11.13;6.40;;;;;;;8.57;85.05;97881.25;5077934;28;20610;-81
2020/12/12 01:04:36;;;;;;;10.20;6.82;;;;;;;8.56;85.49;97873.56;5087997;28;20507;-84
2020/12/12 01:07:01;;;;;;;9.60;7.50;;;;;;;8.53;85.78;97863.47;5090730;28;20028;-85
2020/12/12 01:09:27;;;;;;;10.43;5.85;;;;;;;8.52;85.64;97862.69;5090670;28;20495;-84
2020/12/12 01:11:56;;;;;;;12.52;6.82;;;;;;;8.56;85.78;97854.91;5072780;28;20040;-80
2020/12/12 01:14:21;;;;;;;13.85;8.82;;;;;;;8.57;85.78;97856.47;5072125;28;20032;-82
2020/12/12 01:16:47;;;;;;;14.95;7.32;;;;;;;8.57;85.60;97851.94;5073249;28;20024;-80
2020/12/12 01:19:12;;;;;;;10.07;7.15;;;;;;;8.56;86.00;97847.69;5092389;28;20031;-82
2020/12/12 01:21:38;;;;;;;14.63;7.40;;;;;;;8.58;85.88;97837.53;5076087;28;20431;-80
2020/12/12 01:24:04;;;;;;;10.40;6.95;;;;;;;8.59;86.07;97836.47;5072753;28;20135;-80
2020/12/12 01:26:31;;;;;;;15.57;7.55;;;;;;;8.63;85.83;97836.69;5082621;28;20044;-81
2020/12/12 01:28:56;;;;;;;11.57;6.82;;;;;;;8.68;85.72;97833.09;5091729;28;20036;-81
2020/12/12 01:31:21;;;;;;;9.63;7.18;;;;;;;8.71;85.80;97827.97;5092545;28;20035;-78
2020/12/12 01:33:47;;;;;;;12.13;7.65;;;;;;;8.70;85.71;97822.94;5092152;28;20036;-76
2020/12/12 01:36:13;;;;;;;13.88;7.07;;;;;;;8.69;85.66;97813.38;5089408;28;20458;-77
2020/12/12 01:38:38;;;;;;;11.45;7.10;;;;;;;8.68;86.04;97811.78;5091716;28;20070;-79
2020/12/12 01:41:05;;;;;;;13.38;7.90;;;;;;;8.66;86.35;97801.44;5082319;28;20031;-75
2020/12/12 01:43:31;;;;;;;12.10;7.30;;;;;;;8.63;86.75;97799.38;5072005;28;20039;-74
2020/12/12 01:45:57;;;;;;;15.93;8.52;;;;;;;8.56;87.20;97788.28;5072227;28;20024;-82
2020/12/12 01:48:22;;;;;;;11.60;6.85;;;;;;;8.56;87.32;97793.63;5077734;28;20473;-82
2020/12/12 01:50:49;;;;;;;13.00;7.55;;;;;;;8.53;87.37;97778.97;5082270;28;20060;-79
2020/12/12 01:53:17;;;;;;;13.93;9.45;;;;;;;8.54;87.77;97783.22;5092239;28;20040;-78
2020/12/12 01:55:47;;;;;;;13.93;7.55;;;;;;;8.52;88.18;97773.97;5075346;28;20032;-81
2020/12/12 01:58:17;;;;;;;14.45;7.20;;;;;;;8.51;88.54;97769.72;5089749;28;20055;-84
2020/12/12 02:00:43;;;;;;;12.15;7.60;;;;;;;8.54;88.69;97766.47;5091791;28;20037;-84
2020/12/12 02:03:12;;;;;;;13.75;8.38;;;;;;;8.51;88.68;97753.72;5091513;28;20036;-80
2020/12/12 02:05:39;;;;;;;8.80;6.57;;;;;;;8.54;88.37;97753.16;5091952;28;20028;-82
2020/12/12 02:08:15;;;;;;;12.10;7.32;;;;;;;8.54;88.47;97747.81;5091307;28;20028;-78
2020/12/12 02:10:45;;;;;;;10.57;6.60;;;;;;;8.57;88.79;97736.56;5074082;28;20128;-81
2020/12/12 02:13:12;;;;;;;9.63;6.28;;;;;;;8.58;88.92;97743.47;5071515;28;20139;-80
2020/12/12 02:15:38;;;;;;;10.25;6.50;;;;;;;8.57;89.32;97724.03;5082491;28;20077;-81
2020/12/12 02:18:18;;;;;;;10.57;6.63;;;;;;;8.56;89.20;97719.00;5091308;28;20127;-80
2020/12/12 02:20:56;;;;;;;11.30;6.07;;;;;;;8.64;89.27;97731.63;5091079;28;20025;-80
2020/12/12 02:23:22;;;;;;;8.30;5.83;;;;;;;8.60;89.76;97720.75;5090655;28;20032;-81
2020/12/12 02:25:48;;;;;;;13.32;5.90;;;;;;;8.63;89.51;97728.19;5079923;28;20327;-81
2020/12/12 02:28:18;;;;;;;10.30;6.18;;;;;;;8.64;89.43;97718.31;5071558;28;20028;-83
2020/12/12 02:30:43;;;;;;;9.70;6.15;;;;;;;8.71;89.52;97720.59;5084161;28;20562;-84
2020/12/12 02:33:09;;;;;;;11.43;6.50;;;;;;;8.73;89.24;97718.44;5106962;28;20499;-82
2020/12/12 02:35:34;;;;;;;10.75;6.13;;;;;;;8.73;89.35;97711.22;5090649;28;20043;-84
2020/12/12 02:38:00;;;;;;;9.02;6.00;;;;;;;8.71;88.80;97696.59;5080604;28;20020;-84
2020/12/12 02:40:26;;;;;;;15.55;6.28;;;;;;;8.77;89.13;97698.84;5076456;28;20071;-88
2020/12/12 02:42:51;;;;;;;10.23;6.57;;;;;;;8.84;88.82;97703.00;5078277;28;20029;-85
2020/12/12 02:45:17;;;;;;;10.02;5.78;;;;;;;8.81;88.62;97691.06;5072606;28;20476;-81
2020/12/12 02:47:45;;;;;;;6.72;5.03;;;;;;;8.82;89.23;97695.31;5088814;28;20036;-80
2020/12/12 02:50:12;;;;;;;9.35;5.50;;;;;;;8.84;89.19;97692.34;5084916;28;20477;-78
2020/12/12 02:52:39;;;;;;;9.33;5.57;;;;;;;8.81;89.28;97689.19;5078371;28;20043;-78
2020/12/12 02:55:06;;;;;;;10.27;6.43;;;;;;;8.76;89.39;97681.31;5070174;28;20666;-81
2020/12/12 02:57:33;;;;;;;10.45;6.97;;;;;;;8.69;89.18;97667.59;5070650;28;20495;-82
2020/12/12 02:59:58;;;;;;;10.23;6.57;;;;;;;8.70;89.14;97671.81;5071228;28;20021;-78
2020/12/12 03:02:24;;;;;;;9.00;6.47;;;;;;;8.70;89.35;97671.81;5082177;28;20032;-78
2020/12/12 03:04:49;;;;;;;16.17;7.43;;;;;;;8.69;89.64;97674.78;5100990;28;20036;-80
2020/12/12 03:07:15;;;;;;;10.75;6.95;;;;;;;8.67;89.89;97672.41;5090502;28;20043;-78
2020/12/12 03:09:40;;;;;;;10.82;6.55;;;;;;;8.63;90.12;97666.88;5085832;28;20105;-78
2020/12/12 03:12:05;;;;;;;12.90;6.97;;;;;;;8.63;89.53;97661.56;5070664;28;20465;-77
2020/12/12 03:14:31;;;;;;;11.82;7.70;;;;;;;8.61;89.73;97658.41;5070093;28;20021;-79
2020/12/12 03:16:56;;;;;;;11.98;7.47;;;;;;;8.60;89.82;97661.38;5077525;28;20024;-77
2020/12/12 03:19:22;;;;;;;15.52;7.35;;;;;;;8.59;89.84;97657.13;5090419;28;20535;-79
2020/12/12 03:21:47;;;;;;;10.48;6.85;;;;;;;8.50;90.02;97638.38;5086908;28;20032;-76
2020/12/12 03:24:13;;;;;;;10.60;6.30;;;;;;;8.54;89.83;97652.66;5070903;28;20044;-80
2020/12/12 03:26:41;;;;;;;12.63;6.88;;;;;;;8.55;90.32;97648.16;5090328;28;20031;-81
2020/12/12 03:29:06;;;;;;;9.55;5.90;;;;;;;8.51;90.25;97645.28;5090531;28;20032;-79
2020/12/12 03:31:32;;;;;;;14.90;7.30;;;;;;;8.49;90.45;97634.94;5074256;28;20031;-79
2020/12/12 03:33:59;;;;;;;9.45;6.28;;;;;;;8.50;90.42;97646.38;5070043;28;20055;-82
2020/12/12 03:36:25;;;;;;;10.65;7.38;;;;;;;8.49;90.76;97628.78;5076528;28;20024;-84
2020/12/12 03:38:50;;;;;;;12.82;5.78;;;;;;;8.53;90.49;97632.44;5084016;28;20044;-84
2020/12/12 03:41:15;;;;;;;8.60;6.55;;;;;;;8.53;90.37;97621.00;5070331;28;20028;-82
2020/12/12 03:43:41;;;;;;;10.00;6.82;;;;;;;8.55;90.30;97616.94;5075917;28;20024;-82
2020/12/12 03:46:06;;;;;;;13.32;5.88;;;;;;;8.56;90.16;97604.44;5090315;28;20115;-79
2020/12/12 03:48:32;;;;;;;11.23;6.18;;;;;;;8.55;90.49;97602.84;5088713;28;20077;-78
2020/12/12 03:50:57;;;;;;;9.80;6.43;;;;;;;8.58;90.44;97605.72;5077894;28;20479;-77
2020/12/12 03:53:22;;;;;;;10.50;6.43;;;;;;;8.58;90.70;97597.72;5077469;28;20028;-76
2020/12/12 03:55:48;;;;;;;12.55;6.78;;;;;;;8.62;90.36;97600.56;5070186;28;20028;-75
2020/12/12 03:58:13;;;;;;;12.68;7.20;;;;;;;8.61;90.73;97599.00;5090059;28;20024;-76
2020/12/12 04:00:38;;;;;;;8.55;5.93;;;;;;;8.62;90.62;97600.56;5088817;28;20472;-71
2020/12/12 04:03:04;;;;;;;10.57;6.55;;;;;;;8.61;90.53;97589.09;5071905;28;20052;-72
2020/12/12 04:05:29;;;;;;;6.88;4.57;;;;;;;8.67;90.46;97592.47;5089990;28;20533;-71
2020/12/12 04:07:55;;;;;;;12.32;6.30;;;;;;;8.62;90.53;97585.34;5090976;28;20052;-72
2020/12/12 04:10:20;;;;;;;9.18;5.53;;;;;;;8.69;90.72;97586.81;5089113;28;20020;-73
2020/12/12 04:12:45;;;;;;;10.05;6.40;;;;;;;8.71;90.52;97595.31;5090699;28;20035;-73
2020/12/12 04:15:11;;;;;;;8.98;6.22;;;;;;;8.71;90.60;97593.44;5091114;28;20028;-72
2020/12/12 04:17:36;;;;;;;9.75;5.38;;;;;;;8.71;90.49;97590.00;5090621;28;20035;-73
2020/12/12 04:20:02;;;;;;;11.25;6.88;;;;;;;8.71;90.40;97577.44;5089044;28;20027;-74
2020/12/12 04:22:28;;;;;;;10.10;6.63;;;;;;;8.72;90.41;97576.34;5088924;28;20028;-73
2020/12/12 04:24:53;;;;;;;8.35;6.10;;;;;;;8.74;90.29;97574.19;5086971;28;20054;-74
2020/12/12 04:27:19;;;;;;;9.57;6.22;;;;;;;8.75;90.24;97572.31;5089969;28;20052;-74
2020/12/12 04:29:45;;;;;;;7.47;6.05;;;;;;;8.72;90.40;97556.91;5075982;28;20058;-73
2020/12/12 04:32:11;;;;;;;9.20;6.43;;;;;;;8.75;90.45;97565.13;5080339;28;20037;-80
2020/12/12 04:34:36;;;;;;;9.43;6.30;;;;;;;8.74;90.42;97558.19;5069176;28;20029;-75
2020/12/12 04:37:01;;;;;;;9.30;5.97;;;;;;;8.80;90.60;97566.84;5070454;28;20111;-74
2020/12/12 04:39:27;;;;;;;9.02;6.82;;;;;;;8.80;90.38;97553.53;5078029;28;20024;-74
2020/12/12 04:41:52;;;;;;;10.27;7.15;;;;;;;8.75;90.94;97546.44;5070817;28;20029;-74
2020/12/12 04:44:18;;;;;;;11.30;6.90;;;;;;;8.75;90.68;97541.13;5074981;28;20032;-74
2020/12/12 04:46:43;;;;;;;8.88;6.78;;;;;;;8.78;90.93;97543.16;5069064;28;20078;-77
2020/12/12 04:49:10;;;;;;;12.55;6.38;;;;;;;8.83;90.98;97542.28;5069172;28;20160;-74
2020/12/12 04:51:36;;;;;;;9.77;6.60;;;;;;;8.83;91.05;97534.28;5076425;28;20051;-73
2020/12/12 04:54:02;;;;;;;9.77;6.63;;;;;;;8.81;91.22;97528.44;5086766;28;20404;-73
2020/12/12 04:56:34;;;;;;;9.27;7.10;;;;;;;8.84;91.33;97532.38;5088074;28;20028;-73
2020/12/12 04:59:01;;;;;;;10.63;6.15;;;;;;;8.86;90.73;97531.03;5081023;28;20119;-73
2020/12/12 05:01:27;;;;;;;10.02;6.85;;;;;;;8.84;90.95;97525.19;5078246;28;20032;-74
2020/12/12 05:03:56;;;;;;;10.57;6.45;;;;;;;8.92;90.65;97532.47;5069095;28;20409;-74
2020/12/12 05:06:27;;;;;;;6.40;5.47;;;;;;;8.91;90.64;97538.09;5069191;28;20038;-73
2020/12/12 05:08:53;;;;;;;7.82;5.50;;;;;;;8.90;90.83;97520.50;5070684;28;20037;-74
2020/12/12 05:11:22;;;;;;;6.65;5.85;;;;;;;8.89;90.69;97525.06;5103133;28;20035;-77
2020/12/12 05:13:48;;;;;;;7.95;5.75;;;;;;;8.92;90.81;97524.47;5088912;28;20024;-75
2020/12/12 05:16:13;;;;;;;9.13;6.32;;;;;;;8.96;91.03;97541.44;5074242;28;20748;-74
2020/12/12 05:18:39;;;;;;;7.35;5.32;;;;;;;8.94;90.60;97514.28;5077513;28;20059;-73
2020/12/12 05:21:05;;;;;;;6.38;4.97;;;;;;;8.94;90.84;97522.28;5094169;28;20024;-73
2020/12/12 05:23:31;;;;;;;8.98;5.07;;;;;;;8.95;91.13;97521.19;5084623;28;20056;-75
2020/12/12 05:25:57;;;;;;;8.25;5.90;;;;;;;8.98;91.04;97517.13;5072615;28;20028;-75
2020/12/12 05:28:25;;;;;;;8.13;5.72;;;;;;;8.95;90.81;97504.41;5079328;28;20503;-75
2020/12/12 05:30:52;;;;;;;9.70;6.35;;;;;;;8.99;90.72;97513.38;5072660;28;20032;-75
2020/12/12 05:33:22;;;;;;;11.38;6.70;;;;;;;8.97;90.71;97512.88;5091970;28;20035;-72
2020/12/12 05:35:49;;;;;;;8.93;5.65;;;;;;;8.92;90.37;97497.81;5093738;28;20453;-72
2020/12/12 05:38:15;;;;;;;8.48;6.22;;;;;;;9.00;90.74;97506.19;5085093;28;20078;-75
2020/12/12 05:40:42;;;;;;;11.80;6.75;;;;;;;8.99;90.74;97494.72;5109063;28;20040;-75
2020/12/12 05:43:12;;;;;;;11.37;7.07;;;;;;;8.96;91.02;97500.66;5087058;28;20029;-74
2020/12/12 05:45:39;;;;;;;10.82;7.05;;;;;;;9.02;90.61;97499.44;5071910;28;20519;-76
2020/12/12 05:48:06;;;;;;;10.75;6.85;;;;;;;9.03;90.59;97514.34;5072471;28;20490;-76
2020/12/12 05:50:31;;;;;;;10.68;7.38;;;;;;;9.04;90.51;97501.81;5083650;28;20020;-76
2020/12/12 05:52:57;;;;;;;13.27;7.70;;;;;;;9.04;90.53;97488.47;5078065;28;20051;-75
2020/12/12 05:55:33;;;;;;;9.23;7.55;;;;;;;9.04;90.59;97493.81;5073256;28;20029;-74
2020/12/12 05:57:59;;;;;;;12.65;7.85;;;;;;;9.00;90.44;97493.63;5076927;28;20146;-74
2020/12/12 06:00:27;;;;;;;13.13;9.10;;;;;;;9.05;90.24;97498.06;5091167;28;20077;-75
2020/12/12 06:03:04;;;;;;;10.60;8.30;;;;;;;9.05;90.48;97501.50;5083677;28;20032;-74
2020/12/12 06:05:32;;;;;;;14.27;8.70;;;;;;;9.05;90.64;97487.38;5076447;28;20031;-74
2020/12/12 06:08:00;;;;;;;12.82;7.95;;;;;;;9.02;90.67;97486.13;5087898;28;20055;-75
2020/12/12 06:10:28;;;;;;;15.07;9.30;;;;;;;9.06;90.50;97483.63;5093203;28;20043;-75
2020/12/12 06:12:55;;;;;;;;;;;;;;;9.09;90.35;97493.69;5081532;28;20103;-76
2020/12/12 06:15:32;;;;;;;13.63;8.35;;;;;;;9.02;90.53;97493.31;5071166;28;19916;-76
2020/12/12 06:18:37;;;;;;;16.05;7.47;;;;;;;9.08;90.54;97492.09;5073874;28;20115;-77
2020/12/12 06:21:07;;;;;;;15.38;9.23;;;;;;;9.05;90.79;97493.50;5091270;28;20032;-76
2020/12/12 06:23:37;;;;;;;13.00;9.13;;;;;;;9.09;90.41;97496.34;5087342;28;20059;-74
2020/12/12 06:26:03;;;;;;;11.98;9.23;;;;;;;9.07;90.68;97498.53;5091408;28;20585;-75
2020/12/12 06:28:31;;;;;;;15.80;8.70;;;;;;;9.07;90.49;97490.53;5108439;28;20171;-75
2020/12/12 06:30:58;;;;;;;14.07;9.57;;;;;;;9.07;90.66;97490.53;5090766;28;20030;-74
2020/12/12 06:33:23;;;;;;;15.45;10.55;;;;;;;9.06;90.84;97479.06;5083829;28;20149;-74
2020/12/12 06:35:49;;;;;;;14.15;9.70;;;;;;;9.11;91.10;97491.50;5072041;28;20046;-75
2020/12/12 06:38:21;;;;;;;13.23;8.98;;;;;;;9.10;90.64;97493.38;5090877;28;20039;-77
2020/12/12 06:40:49;;;;;;;16.55;9.68;;;;;;;9.12;90.50;97488.53;5086003;28;20111;-76
2020/12/12 06:43:34;;;;;;;18.95;10.63;;;;;;;9.12;90.40;97485.84;5090825;28;20097;-79
2020/12/12 06:46:03;;;;;;;16.17;11.18;;;;;;;9.13;90.68;97489.31;5091276;28;20070;-76
2020/12/12 06:48:30;;;;;;;18.45;10.73;;;;;;;9.08;90.49;97466.22;5089370;28;20456;-77
2020/12/12 06:50:57;;;;;;;15.80;9.88;;;;;;;9.15;90.50;97476.47;5070685;28;20400;-76
2020/12/12 06:53:25;;;;;;;14.65;9.18;;;;;;;9.11;90.63;97470.94;5070859;28;20024;-76
2020/12/12 06:56:16;;;;;;;16.70;10.20;;;;;;;9.16;90.33;97474.59;5075052;28;20432;-76
2020/12/12 06:58:45;;;;;;;14.02;8.85;;;;;;;9.18;90.24;97467.84;5080854;28;20027;-76
2020/12/12 07:01:30;;;;;;;21.13;10.30;;;;;;;9.21;89.77;97466.47;5089620;28;20028;-73
2020/12/12 07:04:06;;;;;;;14.32;9.82;;;;;;;9.18;89.91;97467.06;5089666;28;20040;-73
2020/12/12 07:06:34;;;;;;;17.60;10.48;;;;;;;9.20;90.00;97468.31;5091494;28;20374;-75
2020/12/12 07:09:09;;;;;;;14.77;8.93;;;;;;;9.20;90.36;97460.31;5106652;28;20032;-75
2020/12/12 07:11:34;;;;;;;16.33;10.13;;;;;;;9.19;90.13;97466.78;5087469;28;20031;-76
2020/12/12 07:14:01;;;;;;;13.80;9.48;;;;;;;9.17;90.01;97466.28;5080211;28;20500;-76
2020/12/12 07:16:27;;;;;;;16.50;10.27;;;;;;;9.20;89.93;97459.53;5089641;28;20028;-75
2020/12/12 07:18:53;;;;;;;17.27;11.75;;;;;;;9.15;90.09;97446.34;5087831;28;20023;-76
2020/12/12 07:21:19;;;;;;;16.35;10.25;;;;;;;9.20;90.40;97452.31;5089408;28;20411;-76
2020/12/12 07:23:45;;;;;;;11.35;7.93;;;;;;;9.20;89.99;97446.22;5088119;28;20432;-75
2020/12/12 07:26:11;;;;;;;26.80;14.63;;;;;;;9.17;89.75;97449.47;5090659;28;20031;-76
2020/12/12 07:28:37;;;;;;;21.73;12.18;;;;;;;9.19;90.36;97449.97;5086817;28;20036;-75
2020/12/12 07:31:02;;;;;;;20.67;11.18;;;;;;;9.18;89.70;97443.84;5089792;28;20065;-75
2020/12/12 07:33:28;;;;;;;21.58;13.30;;;;;;;9.19;89.97;97450.78;5088629;28;20046;-76
2020/12/12 07:35:54;;;;;;;20.17;12.05;;;;;;;9.12;90.43;97437.84;5085476;28;20032;-75
2020/12/12 07:38:19;;;;;;;16.08;10.32;;;;;;;9.17;90.12;97438.81;5088966;28;20039;-75
2020/12/12 07:40:45;;;;;;;17.05;10.70;;;;;;;9.20;90.01;97430.19;5088094;28;20513;-75
2020/12/12 07:43:10;;;;;;;18.77;11.93;;;;;;;9.02;89.89;97411.47;5082105;28;20555;-76
2020/12/12 07:48:08;;;;;;;17.42;11.20;;;;;;;9.15;89.92;97419.69;5090783;28;20475;-76
2020/12/12 07:50:33;;;;;;;8.40;5.93;;;;;;;9.08;87.52;97428.91;5087645;28;20024;-75
2020/12/12 07:53:09;;;;;;;8.82;5.85;;;;;;;8.93;85.88;97423.94;5078729;28;20055;-74
2020/12/12 07:55:43;;;;;;;7.85;5.50;;;;;;;8.86;86.16;97428.91;5087897;28;20024;-75
2020/12/12 07:58:18;;;;;;;11.32;6.55;;;;;;;8.70;85.94;97429.28;5089344;28;20031;-75
2020/12/12 08:00:44;;;;;;;10.05;5.65;;;;;;;8.60;85.63;97427.63;5090676;28;20111;-74
2020/12/12 08:03:10;;;;;;;11.35;6.50;;;;;;;8.53;85.97;97421.94;5082712;28;20553;-75
2020/12/12 08:05:35;;;;;;;7.85;5.38;;;;;;;8.46;86.54;97421.56;5086363;28;20032;-75
2020/12/12 08:08:09;;;;;;;8.60;5.90;;;;;;;8.47;87.21;97415.97;5097665;28;20088;-76
2020/12/12 08:10:35;;;;;;;7.53;5.50;;;;;;;8.47;87.15;97415.97;5107151;27;20492;-78
2020/12/12 08:13:00;;;;;;;4.43;3.45;;;;;;;8.42;87.27;97413.41;5089816;28;20427;-76
2020/12/12 08:15:32;;;;;;;5.82;4.68;;;;;;;8.47;87.86;97415.97;5082066;28;20042;-75
2020/12/12 08:18:08;;;;;;;7.10;4.10;;;;;;;8.52;87.79;97416.91;5069697;28;20020;-76
2020/12/12 08:20:34;;;;;;;8.38;5.30;;;;;;;8.57;87.88;97408.81;5088915;28;20531;-75
2020/12/12 08:23:00;;;;;;;11.80;6.78;;;;;;;8.62;86.96;97409.47;5088919;28;20142;-76
2020/12/12 08:25:26;;;;;;;8.77;5.38;;;;;;;8.62;87.15;97398.03;5091305;28;20085;-79
2020/12/12 08:27:51;;;;;;;6.38;5.05;;;;;;;8.63;86.37;97403.06;5072859;28;20041;-77
2020/12/12 08:30:17;;;;;;;5.15;3.97;;;;;;;8.59;84.53;97393.31;5069574;28;20153;-77
2020/12/12 08:32:46;;;;;;;7.10;4.38;;;;;;;8.56;85.38;97397.38;5076309;28;20656;-74
2020/12/12 08:35:29;;;;;;;5.22;3.28;;;;;;;8.44;84.59;97392.53;5078016;28;20024;-75
2020/12/12 08:38:00;;;;;;;4.50;3.17;;;;;;;8.43;83.79;97387.53;5089234;28;20028;-75
2020/12/12 08:40:29;;;;;;;3.67;2.72;;;;;;;8.36;84.08;97387.97;5084543;28;20025;-76
2020/12/12 08:43:00;;;;;;;4.00;3.13;;;;;;;8.31;84.39;97374.75;5069117;28;20020;-74
2020/12/12 08:45:27;;;;;;;4.82;3.08;;;;;;;8.27;84.21;97376.44;5079570;28;20036;-75
2020/12/12 08:48:08;;;;;;;6.10;3.72;;;;;;;8.21;83.70;97375.75;5089302;28;20028;-75
2020/12/12 08:50:44;;;;;;;4.38;3.03;;;;;;;8.14;83.84;97376.19;5069906;28;20027;-74
2020/12/12 08:53:19;;;;;;;6.40;4.45;;;;;;;8.07;84.04;97365.16;5074673;28;20104;-75
2020/12/12 08:56:06;;;;;;;3.65;3.08;;;;;;;8.02;83.25;97365.28;5092624;28;20489;-75
2020/12/12 08:58:43;;;;;;;3.42;2.88;;;;;;;7.89;84.25;97350.13;5108720;28;20477;-75
2020/12/12 09:01:15;;;;;;;6.55;4.22;;;;;;;7.90;84.64;97363.16;5093349;28;20039;-74
2020/12/12 09:04:07;;;;;;;4.68;2.78;;;;;;;7.82;84.36;97348.69;5093162;28;20024;-80
2020/12/12 09:06:42;;;;;;;3.42;3.10;;;;;;;7.83;84.91;97344.91;5086358;28;20040;-79
2020/12/12 09:09:27;;;;;;;5.45;3.50;;;;;;;7.84;85.08;97348.38;5086630;28;20100;-77
2020/12/12 09:11:56;;;;;;;6.43;4.30;;;;;;;7.88;85.69;97343.25;5083821;28;20115;-80
2020/12/12 09:14:22;;;;;;;7.53;4.97;;;;;;;7.90;85.99;97341.84;5088986;28;20078;-79
2020/12/12 09:16:49;;;;;;;5.00;4.40;;;;;;;7.95;85.54;97339.06;5092677;28;20035;-84
2020/12/12 09:19:14;;;;;;;9.85;5.65;;;;;;;7.98;85.32;97345.66;5092950;28;20427;-77
2020/12/12 09:21:40;;;;;;;8.25;5.35;;;;;;;8.01;85.13;97342.41;5092282;28;20020;-75
2020/12/12 09:24:05;;;;;;;10.48;7.43;;;;;;;8.07;85.80;97346.53;5092616;28;20134;-72
2020/12/12 09:26:31;;;;;;;10.18;7.05;;;;;;;8.10;85.17;97347.81;5089823;28;20109;-74
2020/12/12 09:28:56;;;;;;;12.15;7.75;;;;;;;8.16;85.27;97343.94;5083034;28;20181;-73
2020/12/12 09:31:23;;;;;;;8.73;6.47;;;;;;;8.20;85.15;97357.44;5085989;28;20143;-72
2020/12/12 09:33:49;;;;;;;12.15;6.97;;;;;;;8.15;85.13;97345.81;5086999;28;20032;-73
2020/12/12 09:36:14;;;;;;;13.48;8.38;;;;;;;8.17;85.11;97337.53;5074045;28;20021;-73
2020/12/12 09:38:40;;;;;;;14.57;9.27;;;;;;;8.22;85.13;97347.28;5082212;28;20056;-73
2020/12/12 09:41:05;;;;;;;16.33;11.10;;;;;;;8.25;84.96;97350.13;5077233;28;20028;-73
2020/12/12 09:43:31;;;;;;;12.55;7.68;;;;;;;8.12;84.62;97332.31;5073631;28;20036;-73
2020/12/12 09:45:56;;;;;;;10.55;6.95;;;;;;;8.23;84.63;97340.88;5073000;28;20548;-72
2020/12/12 09:48:22;;;;;;;10.13;6.38;;;;;;;8.25;84.77;97344.00;5105516;27;20024;-74
2020/12/12 09:50:47;;;;;;;9.15;6.35;;;;;;;8.25;84.50;97344.00;5104680;28;20435;-74
2020/12/12 09:53:13;;;;;;;10.48;7.10;;;;;;;8.29;84.28;97342.31;5108574;28;20127;-74
2020/12/12 09:55:40;;;;;;;11.55;6.25;;;;;;;8.29;83.82;97335.09;5091713;28;20024;-74
2020/12/12 09:58:07;;;;;;;9.70;6.15;;;;;;;8.28;84.02;97325.53;5077843;28;20568;-75
2020/12/12 10:00:37;;;;;;;8.57;5.47;;;;;;;8.28;83.97;97330.84;5108942;28;20024;-74
2020/12/12 10:03:04;;;;;;;8.38;5.47;;;;;;;8.30;83.66;97327.88;5091349;28;20069;-74
2020/12/12 10:05:31;;;;;;;8.90;5.80;;;;;;;8.29;83.61;97327.13;5093453;28;20100;-74
2020/12/12 10:07:57;;;;;;;7.53;5.20;;;;;;;8.27;84.01;97323.19;5079052;28;20123;-76
2020/12/12 10:10:24;;;;;;;8.63;5.25;;;;;;;8.27;83.52;97323.97;5071822;28;20552;-77
2020/12/12 10:12:50;;;;;;;9.40;5.22;;;;;;;8.25;83.67;97342.13;5074202;28;20420;-73
2020/12/12 10:15:17;;;;;;;8.55;5.57;;;;;;;8.28;83.66;97335.41;5083018;28;20028;-72
2020/12/12 10:17:43;;;;;;;7.70;5.25;;;;;;;8.27;83.88;97328.50;5093085;28;20020;-74
2020/12/12 10:20:09;;;;;;;6.90;4.60;;;;;;;8.26;83.68;97334.91;5082783;28;20029;-71
2020/12/12 10:22:34;;;;;;;8.07;4.68;;;;;;;8.26;83.89;97329.59;5090601;28;20476;-72
2020/12/12 10:25:00;;;;;;;6.18;5.03;;;;;;;8.33;83.66;97351.25;5071161;28;20068;-72
2020/12/12 10:27:25;;;;;;;5.45;4.18;;;;;;;8.35;83.58;97341.09;5086949;28;20031;-71
2020/12/12 10:29:51;;;;;;;6.35;4.30;;;;;;;8.30;83.41;97330.56;5074956;28;20500;-73
2020/12/12 10:32:16;;;;;;;6.18;4.22;;;;;;;8.34;83.54;97337.63;5076167;28;20063;-71
2020/12/12 10:34:41;;;;;;;6.32;4.47;;;;;;;8.40;83.83;97348.97;5072814;28;20032;-75
2020/12/12 10:37:07;;;;;;;4.47;3.95;;;;;;;8.36;83.97;97332.03;5071070;28;20032;-72
2020/12/12 10:39:36;;;;;;;8.38;4.32;;;;;;;8.42;83.63;97333.47;5071299;28;20461;-73
2020/12/12 10:42:02;;;;;;;7.30;4.40;;;;;;;8.40;83.30;97327.66;5081829;28;20023;-72
2020/12/12 10:44:27;;;;;;;5.47;4.32;;;;;;;8.38;83.26;97337.81;5075594;28;20028;-73
2020/12/12 10:46:53;;;;;;;8.23;5.10;;;;;;;8.39;83.44;97330.63;5087285;28;20062;-72
2020/12/12 10:49:19;;;;;;;9.00;4.93;;;;;;;8.36;83.48;97321.38;5088524;28;20093;-73
2020/12/12 10:51:49;;;;;;;7.75;5.35;;;;;;;8.40;83.43;97330.31;5082236;28;20028;-73
2020/12/12 10:54:17;;;;;;;5.45;4.40;;;;;;;8.56;83.90;97336.09;5092215;28;20039;-73
2020/12/12 10:56:46;;;;;;;5.93;4.95;;;;;;;8.61;83.83;97337.84;5090331;28;20484;-72
2020/12/12 10:59:12;;;;;;;9.60;5.70;;;;;;;8.65;83.46;97344.94;5091702;28;20103;-72
2020/12/12 11:01:38;;;;;;;7.82;5.07;;;;;;;8.71;83.52;97353.56;5085031;28;20106;-72
2020/12/12 11:04:04;;;;;;;9.90;5.28;;;;;;;8.73;83.37;97348.72;5084133;28;20067;-72
2020/12/12 11:06:30;;;;;;;9.00;5.93;;;;;;;8.76;82.50;97347.31;5092295;28;20031;-72
2020/12/12 11:08:55;;;;;;;9.00;5.63;;;;;;;8.81;83.47;97349.84;5092299;28;20031;-72
2020/12/12 11:11:21;;;;;;;11.57;6.13;;;;;;;8.88;83.29;97347.53;5089508;28;20058;-72
2020/12/12 11:13:47;;;;;;;9.90;5.72;;;;;;;8.91;82.94;97346.13;5086744;28;20044;-72
2020/12/12 11:16:20;;;;;;;12.65;6.47;;;;;;;8.94;82.87;97351.66;5081562;28;20039;-71
2020/12/12 11:18:51;;;;;;;13.30;7.22;;;;;;;9.02;82.69;97352.00;5072658;28;20413;-71
2020/12/12 11:21:24;;;;;;;9.73;6.60;;;;;;;9.02;83.09;97347.47;5091974;28;20063;-72
2020/12/12 11:23:50;;;;;;;9.15;6.28;;;;;;;9.07;82.66;97341.19;5091643;28;20186;-73
2020/12/12 11:26:16;;;;;;;9.25;5.97;;;;;;;9.15;82.20;97345.78;5090737;28;20141;-72
2020/12/12 11:28:43;;;;;;;10.00;7.05;;;;;;;9.17;82.59;97345.47;5086754;28;20586;-71
2020/12/12 11:31:09;;;;;;;10.15;5.88;;;;;;;9.24;81.99;97337.81;5083996;28;20045;-72
2020/12/12 11:33:36;;;;;;;8.23;5.63;;;;;;;9.30;81.90;97344.56;5085034;28;20157;-72
2020/12/12 11:41:21;;;;;;;8.07;5.72;;;;;;;9.38;82.48;97327.81;5074716;28;20120;-71
2020/12/12 11:48:48;;;;;;;9.80;5.78;;;;;;;9.63;81.02;97332.72;5077302;28;20035;-73
2020/12/12 11:51:13;;;;;;;7.22;4.63;;;;;;;9.65;81.27;97325.97;5091446;28;20034;-73